sensor_id;sensor_type;location;lat;lon;timestamp;temperature;humidity
47626;DHT22;33342;45.574;9.252;2023-05-10T00:01:09;18.90;99.90
47626;DHT22;33342;45.574;9.252;2023-05-10T00:03:36;18.90;99.90
47626;DHT22;33342;45.574;9.252;2023-05-10T00:06:04;18.90;99.90
47626;DHT22;33342;45.574;9.252;2023-05-10T00:08:31;18.90;99.90
47626;DHT22;33342;45.574;9.252;2023-05-10T00:10:58;18.90;99.90
47626;DHT22;33342;45.574;9.252;2023-05-10T00:13:25;18.80;99.90
47626;DHT22;33342;45.574;9.252;2023-05-10T00:15:52;18.90;99.90
47626;DHT22;33342;45.574;9.252;2023-05-10T00:18:19;18.90;99.90
47626;DHT22;33342;45.574;9.252;2023-05-10T00:20:46;18.80;99.90
47626;DHT22;33342;45.574;9.252;2023-05-10T00:23:15;18.80;99.90
47626;DHT22;33342;45.574;9.252;2023-05-10T00:25:42;18.80;99.90
47626;DHT22;33342;45.574;9.252;2023-05-10T00:28:09;18.80;99.90
47626;DHT22;33342;45.574;9.252;2023-05-10T00:30:36;18.80;99.90
47626;DHT22;33342;45.574;9.252;2023-05-10T00:33:03;18.80;99.90
47626;DHT22;33342;45.574;9.252;2023-05-10T00:35:30;18.80;99.90
47626;DHT22;33342;45.574;9.252;2023-05-10T00:37:58;18.70;99.90
47626;DHT22;33342;45.574;9.252;2023-05-10T00:40:24;18.70;99.90
47626;DHT22;33342;45.574;9.252;2023-05-10T00:42:57;18.70;99.90
47626;DHT22;33342;45.574;9.252;2023-05-10T00:45:25;18.70;99.90
47626;DHT22;33342;45.574;9.252;2023-05-10T00:47:52;18.70;99.90
47626;DHT22;33342;45.574;9.252;2023-05-10T00:50:40;18.70;99.90
47626;DHT22;33342;45.574;9.252;2023-05-10T00:53:08;18.70;99.90
47626;DHT22;33342;45.574;9.252;2023-05-10T00:55:36;18.70;99.90
47626;DHT22;33342;45.574;9.252;2023-05-10T00:58:04;18.70;99.90
47626;DHT22;33342;45.574;9.252;2023-05-10T01:00:33;18.70;99.90
47626;DHT22;33342;45.574;9.252;2023-05-10T01:03:00;18.70;99.90
47626;DHT22;33342;45.574;9.252;2023-05-10T01:05:28;18.70;99.90
47626;DHT22;33342;45.574;9.252;2023-05-10T01:07:56;18.70;99.90
47626;DHT22;33342;45.574;9.252;2023-05-10T01:10:23;18.70;99.90
47626;DHT22;33342;45.574;9.252;2023-05-10T01:12:51;18.70;99.90
47626;DHT22;33342;45.574;9.252;2023-05-10T01:15:18;18.70;99.90
47626;DHT22;33342;45.574;9.252;2023-05-10T01:17:47;18.70;99.90
47626;DHT22;33342;45.574;9.252;2023-05-10T01:20:15;18.60;99.90
47626;DHT22;33342;45.574;9.252;2023-05-10T01:35:03;18.60;99.90
47626;DHT22;33342;45.574;9.252;2023-05-10T01:37:40;18.60;99.90
47626;DHT22;33342;45.574;9.252;2023-05-10T01:42:51;18.50;99.90
47626;DHT22;33342;45.574;9.252;2023-05-10T01:45:27;18.50;99.90
47626;DHT22;33342;45.574;9.252;2023-05-10T01:48:03;18.50;99.90
47626;DHT22;33342;45.574;9.252;2023-05-10T01:50:32;18.50;99.90
47626;DHT22;33342;45.574;9.252;2023-05-10T01:53:02;18.40;99.90
47626;DHT22;33342;45.574;9.252;2023-05-10T01:55:32;18.40;99.90
47626;DHT22;33342;45.574;9.252;2023-05-10T01:58:09;18.40;99.90
47626;DHT22;33342;45.574;9.252;2023-05-10T02:00:40;18.40;99.90
47626;DHT22;33342;45.574;9.252;2023-05-10T02:03:10;18.30;99.90
47626;DHT22;33342;45.574;9.252;2023-05-10T02:05:38;18.30;99.90
47626;DHT22;33342;45.574;9.252;2023-05-10T02:08:07;18.30;99.90
47626;DHT22;33342;45.574;9.252;2023-05-10T02:10:36;18.20;99.90
47626;DHT22;33342;45.574;9.252;2023-05-10T02:13:05;18.20;99.90
47626;DHT22;33342;45.574;9.252;2023-05-10T02:15:34;18.20;99.90
47626;DHT22;33342;45.574;9.252;2023-05-10T02:18:04;18.20;99.90
47626;DHT22;33342;45.574;9.252;2023-05-10T02:20:33;18.20;99.90
47626;DHT22;33342;45.574;9.252;2023-05-10T02:23:02;18.20;99.90
47626;DHT22;33342;45.574;9.252;2023-05-10T02:25:31;18.10;99.90
47626;DHT22;33342;45.574;9.252;2023-05-10T02:28:00;18.10;99.90
47626;DHT22;33342;45.574;9.252;2023-05-10T02:30:28;18.10;99.90
47626;DHT22;33342;45.574;9.252;2023-05-10T02:32:58;18.10;99.90
47626;DHT22;33342;45.574;9.252;2023-05-10T02:35:26;18.10;99.90
47626;DHT22;33342;45.574;9.252;2023-05-10T02:37:54;18.10;99.90
47626;DHT22;33342;45.574;9.252;2023-05-10T02:40:22;18.10;99.90
47626;DHT22;33342;45.574;9.252;2023-05-10T02:42:56;18.10;99.90
47626;DHT22;33342;45.574;9.252;2023-05-10T02:45:27;18.10;99.90
47626;DHT22;33342;45.574;9.252;2023-05-10T02:47:55;18.10;99.90
47626;DHT22;33342;45.574;9.252;2023-05-10T02:50:26;18.10;99.90
47626;DHT22;33342;45.574;9.252;2023-05-10T02:53:00;18.10;99.90
47626;DHT22;33342;45.574;9.252;2023-05-10T02:55:35;18.10;99.90
47626;DHT22;33342;45.574;9.252;2023-05-10T02:58:03;18.10;99.90
47626;DHT22;33342;45.574;9.252;2023-05-10T03:00:31;18.10;99.90
47626;DHT22;33342;45.574;9.252;2023-05-10T03:02:58;18.10;99.90
47626;DHT22;33342;45.574;9.252;2023-05-10T03:05:27;18.10;99.90
47626;DHT22;33342;45.574;9.252;2023-05-10T03:07:55;18.10;99.90
47626;DHT22;33342;45.574;9.252;2023-05-10T03:10:27;18.00;99.90
47626;DHT22;33342;45.574;9.252;2023-05-10T03:15:58;18.10;99.90
47626;DHT22;33342;45.574;9.252;2023-05-10T03:18:47;18.10;99.90
47626;DHT22;33342;45.574;9.252;2023-05-10T03:21:17;18.00;99.90
47626;DHT22;33342;45.574;9.252;2023-05-10T03:23:51;18.00;99.90
47626;DHT22;33342;45.574;9.252;2023-05-10T03:26:26;18.00;99.90
47626;DHT22;33342;45.574;9.252;2023-05-10T03:29:04;18.00;99.90
47626;DHT22;33342;45.574;9.252;2023-05-10T03:31:32;18.00;99.90
47626;DHT22;33342;45.574;9.252;2023-05-10T03:34:00;18.00;99.90
47626;DHT22;33342;45.574;9.252;2023-05-10T03:36:27;18.00;99.90
47626;DHT22;33342;45.574;9.252;2023-05-10T03:38:55;18.00;99.90
47626;DHT22;33342;45.574;9.252;2023-05-10T03:41:22;17.90;99.90
47626;DHT22;33342;45.574;9.252;2023-05-10T03:43:49;17.90;99.90
47626;DHT22;33342;45.574;9.252;2023-05-10T03:46:16;17.90;99.90
47626;DHT22;33342;45.574;9.252;2023-05-10T03:48:43;17.90;99.90
47626;DHT22;33342;45.574;9.252;2023-05-10T03:51:10;17.90;99.90
47626;DHT22;33342;45.574;9.252;2023-05-10T03:53:39;17.90;99.90
47626;DHT22;33342;45.574;9.252;2023-05-10T03:56:06;17.90;99.90
47626;DHT22;33342;45.574;9.252;2023-05-10T03:58:34;17.90;99.90
47626;DHT22;33342;45.574;9.252;2023-05-10T04:01:01;17.90;99.90
47626;DHT22;33342;45.574;9.252;2023-05-10T04:03:28;17.90;99.90
47626;DHT22;33342;45.574;9.252;2023-05-10T04:05:59;17.90;99.90
47626;DHT22;33342;45.574;9.252;2023-05-10T04:08:27;17.80;99.90
47626;DHT22;33342;45.574;9.252;2023-05-10T04:11:09;17.80;99.90
47626;DHT22;33342;45.574;9.252;2023-05-10T04:13:37;17.80;99.90
47626;DHT22;33342;45.574;9.252;2023-05-10T04:16:05;17.80;99.90
47626;DHT22;33342;45.574;9.252;2023-05-10T04:18:32;17.80;99.90
47626;DHT22;33342;45.574;9.252;2023-05-10T04:20:59;17.80;99.90
47626;DHT22;33342;45.574;9.252;2023-05-10T04:23:29;17.80;99.90
47626;DHT22;33342;45.574;9.252;2023-05-10T04:26:01;17.80;99.90
47626;DHT22;33342;45.574;9.252;2023-05-10T04:28:28;17.80;99.90
47626;DHT22;33342;45.574;9.252;2023-05-10T04:31:08;17.80;99.90
47626;DHT22;33342;45.574;9.252;2023-05-10T04:33:36;17.80;99.90
47626;DHT22;33342;45.574;9.252;2023-05-10T04:36:03;17.80;99.90
47626;DHT22;33342;45.574;9.252;2023-05-10T04:38:31;17.80;99.90
47626;DHT22;33342;45.574;9.252;2023-05-10T04:41:08;17.80;99.90
47626;DHT22;33342;45.574;9.252;2023-05-10T04:43:36;17.80;99.90
47626;DHT22;33342;45.574;9.252;2023-05-10T04:46:03;17.70;99.90
47626;DHT22;33342;45.574;9.252;2023-05-10T04:48:30;17.70;99.90
47626;DHT22;33342;45.574;9.252;2023-05-10T04:50:57;17.70;99.90
47626;DHT22;33342;45.574;9.252;2023-05-10T04:53:24;17.70;99.90
47626;DHT22;33342;45.574;9.252;2023-05-10T04:55:51;17.70;99.90
47626;DHT22;33342;45.574;9.252;2023-05-10T04:58:18;17.60;99.90
47626;DHT22;33342;45.574;9.252;2023-05-10T05:00:45;17.60;99.90
47626;DHT22;33342;45.574;9.252;2023-05-10T05:03:13;17.60;99.90
47626;DHT22;33342;45.574;9.252;2023-05-10T05:05:40;17.60;99.90
47626;DHT22;33342;45.574;9.252;2023-05-10T05:08:07;17.60;99.90
47626;DHT22;33342;45.574;9.252;2023-05-10T05:10:34;17.60;99.90
47626;DHT22;33342;45.574;9.252;2023-05-10T05:13:01;17.50;99.90
47626;DHT22;33342;45.574;9.252;2023-05-10T05:15:28;17.60;99.90
47626;DHT22;33342;45.574;9.252;2023-05-10T05:17:57;17.50;99.90
47626;DHT22;33342;45.574;9.252;2023-05-10T05:20:26;17.50;99.90
47626;DHT22;33342;45.574;9.252;2023-05-10T05:22:54;17.50;99.90
47626;DHT22;33342;45.574;9.252;2023-05-10T05:25:22;17.50;99.90
47626;DHT22;33342;45.574;9.252;2023-05-10T05:27:49;17.50;99.90
47626;DHT22;33342;45.574;9.252;2023-05-10T05:30:16;17.50;99.90
47626;DHT22;33342;45.574;9.252;2023-05-10T05:32:44;17.50;99.90
47626;DHT22;33342;45.574;9.252;2023-05-10T05:35:11;17.50;99.90
47626;DHT22;33342;45.574;9.252;2023-05-10T05:37:39;17.50;99.90
47626;DHT22;33342;45.574;9.252;2023-05-10T05:40:06;17.50;99.90
47626;DHT22;33342;45.574;9.252;2023-05-10T05:42:33;17.50;99.90
47626;DHT22;33342;45.574;9.252;2023-05-10T05:45:00;17.50;99.90
47626;DHT22;33342;45.574;9.252;2023-05-10T05:47:27;17.50;99.90
47626;DHT22;33342;45.574;9.252;2023-05-10T05:49:54;17.60;99.90
47626;DHT22;33342;45.574;9.252;2023-05-10T05:52:22;17.60;99.90
47626;DHT22;33342;45.574;9.252;2023-05-10T05:54:49;17.60;99.90
47626;DHT22;33342;45.574;9.252;2023-05-10T05:57:16;17.60;99.90
47626;DHT22;33342;45.574;9.252;2023-05-10T05:59:43;17.60;99.90
47626;DHT22;33342;45.574;9.252;2023-05-10T06:02:10;17.60;99.90
47626;DHT22;33342;45.574;9.252;2023-05-10T06:04:38;17.60;99.90
47626;DHT22;33342;45.574;9.252;2023-05-10T06:07:05;17.60;99.90
47626;DHT22;33342;45.574;9.252;2023-05-10T06:09:32;17.70;99.90
47626;DHT22;33342;45.574;9.252;2023-05-10T06:11:59;17.70;99.90
47626;DHT22;33342;45.574;9.252;2023-05-10T06:14:26;17.70;99.90
47626;DHT22;33342;45.574;9.252;2023-05-10T06:16:53;17.70;99.90
47626;DHT22;33342;45.574;9.252;2023-05-10T06:19:20;17.70;99.90
47626;DHT22;33342;45.574;9.252;2023-05-10T06:21:47;17.70;99.90
47626;DHT22;33342;45.574;9.252;2023-05-10T06:24:14;17.70;99.90
47626;DHT22;33342;45.574;9.252;2023-05-10T06:26:41;17.70;99.90
47626;DHT22;33342;45.574;9.252;2023-05-10T06:29:08;17.70;99.90
47626;DHT22;33342;45.574;9.252;2023-05-10T06:31:35;17.70;99.90
47626;DHT22;33342;45.574;9.252;2023-05-10T06:34:02;17.70;99.90
47626;DHT22;33342;45.574;9.252;2023-05-10T06:36:29;17.70;99.90
47626;DHT22;33342;45.574;9.252;2023-05-10T06:38:56;17.80;99.90
47626;DHT22;33342;45.574;9.252;2023-05-10T06:41:23;17.70;99.90
47626;DHT22;33342;45.574;9.252;2023-05-10T06:43:50;17.70;99.90
47626;DHT22;33342;45.574;9.252;2023-05-10T06:46:17;17.70;99.90
47626;DHT22;33342;45.574;9.252;2023-05-10T06:48:44;17.70;99.90
47626;DHT22;33342;45.574;9.252;2023-05-10T06:51:11;17.70;99.90
47626;DHT22;33342;45.574;9.252;2023-05-10T06:53:38;17.70;99.90
47626;DHT22;33342;45.574;9.252;2023-05-10T06:56:05;17.70;99.90
47626;DHT22;33342;45.574;9.252;2023-05-10T06:58:33;17.80;99.90
47626;DHT22;33342;45.574;9.252;2023-05-10T07:01:06;17.80;99.90
47626;DHT22;33342;45.574;9.252;2023-05-10T07:03:33;17.80;99.90
47626;DHT22;33342;45.574;9.252;2023-05-10T07:06:04;17.80;99.90
47626;DHT22;33342;45.574;9.252;2023-05-10T07:08:32;17.90;99.90
47626;DHT22;33342;45.574;9.252;2023-05-10T07:11:01;17.90;99.90
47626;DHT22;33342;45.574;9.252;2023-05-10T07:13:29;17.90;99.90
47626;DHT22;33342;45.574;9.252;2023-05-10T07:15:56;17.90;99.90
47626;DHT22;33342;45.574;9.252;2023-05-10T07:18:24;17.90;99.90
47626;DHT22;33342;45.574;9.252;2023-05-10T07:20:51;17.90;99.90
47626;DHT22;33342;45.574;9.252;2023-05-10T07:23:18;17.90;99.90
47626;DHT22;33342;45.574;9.252;2023-05-10T07:25:47;17.90;99.90
47626;DHT22;33342;45.574;9.252;2023-05-10T07:28:15;17.90;99.90
47626;DHT22;33342;45.574;9.252;2023-05-10T07:30:43;17.90;99.90
47626;DHT22;33342;45.574;9.252;2023-05-10T07:33:11;17.90;99.90
47626;DHT22;33342;45.574;9.252;2023-05-10T07:35:39;17.80;99.90
47626;DHT22;33342;45.574;9.252;2023-05-10T07:38:06;17.80;99.90
47626;DHT22;33342;45.574;9.252;2023-05-10T07:40:33;17.70;99.90
47626;DHT22;33342;45.574;9.252;2023-05-10T07:43:00;17.60;99.90
47626;DHT22;33342;45.574;9.252;2023-05-10T07:45:28;17.60;99.90
47626;DHT22;33342;45.574;9.252;2023-05-10T07:47:55;17.50;99.90
47626;DHT22;33342;45.574;9.252;2023-05-10T07:50:22;17.50;99.90
47626;DHT22;33342;45.574;9.252;2023-05-10T07:52:49;17.60;99.90
47626;DHT22;33342;45.574;9.252;2023-05-10T07:55:18;17.60;99.90
47626;DHT22;33342;45.574;9.252;2023-05-10T07:57:45;17.70;99.90
47626;DHT22;33342;45.574;9.252;2023-05-10T08:00:13;17.70;99.90
47626;DHT22;33342;45.574;9.252;2023-05-10T08:02:43;17.80;99.90
47626;DHT22;33342;45.574;9.252;2023-05-10T08:05:10;17.80;99.90
47626;DHT22;33342;45.574;9.252;2023-05-10T08:07:37;17.90;99.90
47626;DHT22;33342;45.574;9.252;2023-05-10T08:10:05;17.90;99.90
47626;DHT22;33342;45.574;9.252;2023-05-10T08:12:32;18.00;99.90
47626;DHT22;33342;45.574;9.252;2023-05-10T08:14:59;18.00;99.90
47626;DHT22;33342;45.574;9.252;2023-05-10T08:17:26;18.10;99.90
47626;DHT22;33342;45.574;9.252;2023-05-10T08:19:53;18.10;99.90
47626;DHT22;33342;45.574;9.252;2023-05-10T08:22:21;18.20;99.90
47626;DHT22;33342;45.574;9.252;2023-05-10T08:24:48;18.20;99.90
47626;DHT22;33342;45.574;9.252;2023-05-10T08:27:15;18.30;99.90
47626;DHT22;33342;45.574;9.252;2023-05-10T08:29:42;18.30;99.90
47626;DHT22;33342;45.574;9.252;2023-05-10T08:32:17;18.30;99.90
47626;DHT22;33342;45.574;9.252;2023-05-10T08:34:43;18.30;99.90
47626;DHT22;33342;45.574;9.252;2023-05-10T08:37:11;18.30;99.90
47626;DHT22;33342;45.574;9.252;2023-05-10T08:39:40;18.40;99.90
47626;DHT22;33342;45.574;9.252;2023-05-10T08:42:07;18.40;99.90
47626;DHT22;33342;45.574;9.252;2023-05-10T08:44:36;18.50;99.90
47626;DHT22;33342;45.574;9.252;2023-05-10T08:47:07;18.40;99.90
47626;DHT22;33342;45.574;9.252;2023-05-10T08:49:37;18.40;99.90
47626;DHT22;33342;45.574;9.252;2023-05-10T08:52:04;18.30;99.90
47626;DHT22;33342;45.574;9.252;2023-05-10T08:54:33;18.30;99.90
47626;DHT22;33342;45.574;9.252;2023-05-10T08:57:00;18.40;99.90
47626;DHT22;33342;45.574;9.252;2023-05-10T08:59:28;18.30;99.90
47626;DHT22;33342;45.574;9.252;2023-05-10T09:01:58;18.40;99.90
47626;DHT22;33342;45.574;9.252;2023-05-10T09:04:27;18.40;99.90
47626;DHT22;33342;45.574;9.252;2023-05-10T09:06:55;18.40;99.90
47626;DHT22;33342;45.574;9.252;2023-05-10T09:09:23;18.40;99.90
47626;DHT22;33342;45.574;9.252;2023-05-10T09:11:52;18.50;99.90
47626;DHT22;33342;45.574;9.252;2023-05-10T09:14:20;18.50;99.90
47626;DHT22;33342;45.574;9.252;2023-05-10T09:16:48;18.50;99.90
47626;DHT22;33342;45.574;9.252;2023-05-10T09:19:15;18.50;99.90
47626;DHT22;33342;45.574;9.252;2023-05-10T09:21:43;18.60;99.90
47626;DHT22;33342;45.574;9.252;2023-05-10T09:24:10;18.60;99.90
47626;DHT22;33342;45.574;9.252;2023-05-10T09:26:46;18.70;99.90
47626;DHT22;33342;45.574;9.252;2023-05-10T09:29:16;18.80;99.90
47626;DHT22;33342;45.574;9.252;2023-05-10T09:31:52;18.80;99.90
47626;DHT22;33342;45.574;9.252;2023-05-10T09:34:29;18.90;99.90
47626;DHT22;33342;45.574;9.252;2023-05-10T09:36:59;18.80;99.90
47626;DHT22;33342;45.574;9.252;2023-05-10T09:39:32;18.80;99.90
47626;DHT22;33342;45.574;9.252;2023-05-10T09:42:07;18.80;99.90
47626;DHT22;33342;45.574;9.252;2023-05-10T09:44:36;18.70;99.90
47626;DHT22;33342;45.574;9.252;2023-05-10T09:47:03;18.70;99.90
47626;DHT22;33342;45.574;9.252;2023-05-10T09:49:31;18.70;99.90
47626;DHT22;33342;45.574;9.252;2023-05-10T09:52:03;18.70;99.90
47626;DHT22;33342;45.574;9.252;2023-05-10T09:54:31;18.60;99.90
47626;DHT22;33342;45.574;9.252;2023-05-10T09:56:58;18.60;99.90
47626;DHT22;33342;45.574;9.252;2023-05-10T09:59:26;18.60;99.90
47626;DHT22;33342;45.574;9.252;2023-05-10T10:01:59;18.60;99.90
47626;DHT22;33342;45.574;9.252;2023-05-10T10:04:27;18.60;99.90
47626;DHT22;33342;45.574;9.252;2023-05-10T10:07:02;18.70;99.90
47626;DHT22;33342;45.574;9.252;2023-05-10T10:09:30;18.70;99.90
47626;DHT22;33342;45.574;9.252;2023-05-10T10:12:02;18.80;99.90
47626;DHT22;33342;45.574;9.252;2023-05-10T10:14:29;18.90;99.90
47626;DHT22;33342;45.574;9.252;2023-05-10T10:16:56;19.00;99.90
47626;DHT22;33342;45.574;9.252;2023-05-10T10:19:34;19.00;99.90
47626;DHT22;33342;45.574;9.252;2023-05-10T10:22:05;19.00;99.90
47626;DHT22;33342;45.574;9.252;2023-05-10T10:24:32;19.00;99.90
47626;DHT22;33342;45.574;9.252;2023-05-10T10:27:09;19.00;99.90
47626;DHT22;33342;45.574;9.252;2023-05-10T10:29:47;19.10;99.90
47626;DHT22;33342;45.574;9.252;2023-05-10T10:34:54;19.00;99.90
47626;DHT22;33342;45.574;9.252;2023-05-10T10:37:23;19.00;99.90
47626;DHT22;33342;45.574;9.252;2023-05-10T10:39:50;19.00;99.90
47626;DHT22;33342;45.574;9.252;2023-05-10T10:42:55;18.90;99.90
47626;DHT22;33342;45.574;9.252;2023-05-10T10:45:23;18.80;99.90
47626;DHT22;33342;45.574;9.252;2023-05-10T10:48:20;18.80;99.90
47626;DHT22;33342;45.574;9.252;2023-05-10T10:50:56;18.70;99.90
47626;DHT22;33342;45.574;9.252;2023-05-10T10:53:26;18.70;99.90
47626;DHT22;33342;45.574;9.252;2023-05-10T10:56:09;18.60;99.90
47626;DHT22;33342;45.574;9.252;2023-05-10T10:58:37;18.60;99.90
47626;DHT22;33342;45.574;9.252;2023-05-10T11:01:16;18.60;99.90
47626;DHT22;33342;45.574;9.252;2023-05-10T11:06:33;18.60;99.90
47626;DHT22;33342;45.574;9.252;2023-05-10T11:09:08;18.60;99.90
47626;DHT22;33342;45.574;9.252;2023-05-10T11:11:48;18.60;99.90
47626;DHT22;33342;45.574;9.252;2023-05-10T11:14:20;18.60;99.90
47626;DHT22;33342;45.574;9.252;2023-05-10T11:16:48;18.60;99.90
47626;DHT22;33342;45.574;9.252;2023-05-10T11:19:16;18.50;99.90
47626;DHT22;33342;45.574;9.252;2023-05-10T11:24:19;18.50;99.90
47626;DHT22;33342;45.574;9.252;2023-05-10T11:26:50;18.40;99.90
47626;DHT22;33342;45.574;9.252;2023-05-10T11:29:18;18.30;99.90
47626;DHT22;33342;45.574;9.252;2023-05-10T11:31:46;18.30;99.90
47626;DHT22;33342;45.574;9.252;2023-05-10T11:34:31;18.30;99.90
47626;DHT22;33342;45.574;9.252;2023-05-10T11:37:00;18.30;99.90
47626;DHT22;33342;45.574;9.252;2023-05-10T11:39:31;18.20;99.90
47626;DHT22;33342;45.574;9.252;2023-05-10T11:41:59;18.20;99.90
47626;DHT22;33342;45.574;9.252;2023-05-10T11:44:31;18.20;99.90
47626;DHT22;33342;45.574;9.252;2023-05-10T11:47:02;18.30;99.90
47626;DHT22;33342;45.574;9.252;2023-05-10T11:49:30;18.30;99.90
47626;DHT22;33342;45.574;9.252;2023-05-10T11:52:07;18.20;99.90
47626;DHT22;33342;45.574;9.252;2023-05-10T11:54:34;18.20;99.90
47626;DHT22;33342;45.574;9.252;2023-05-10T11:57:04;18.20;99.90
47626;DHT22;33342;45.574;9.252;2023-05-10T11:59:31;18.10;99.90
47626;DHT22;33342;45.574;9.252;2023-05-10T12:01:58;18.00;99.90
47626;DHT22;33342;45.574;9.252;2023-05-10T12:04:26;18.00;99.90
47626;DHT22;33342;45.574;9.252;2023-05-10T12:06:56;18.00;99.90
47626;DHT22;33342;45.574;9.252;2023-05-10T12:09:23;17.90;99.90
47626;DHT22;33342;45.574;9.252;2023-05-10T12:12:05;18.00;99.90
47626;DHT22;33342;45.574;9.252;2023-05-10T12:14:36;18.00;99.90
47626;DHT22;33342;45.574;9.252;2023-05-10T12:17:03;18.00;99.90
47626;DHT22;33342;45.574;9.252;2023-05-10T12:19:40;18.00;99.90
47626;DHT22;33342;45.574;9.252;2023-05-10T12:22:08;18.00;99.90
47626;DHT22;33342;45.574;9.252;2023-05-10T12:24:36;18.00;99.90
47626;DHT22;33342;45.574;9.252;2023-05-10T12:27:07;17.90;99.90
47626;DHT22;33342;45.574;9.252;2023-05-10T12:29:52;17.90;99.90
47626;DHT22;33342;45.574;9.252;2023-05-10T12:32:21;17.90;99.90
47626;DHT22;33342;45.574;9.252;2023-05-10T12:34:48;17.90;99.90
47626;DHT22;33342;45.574;9.252;2023-05-10T12:37:15;17.90;99.90
47626;DHT22;33342;45.574;9.252;2023-05-10T12:39:45;17.90;99.90
47626;DHT22;33342;45.574;9.252;2023-05-10T12:42:12;17.90;99.90
47626;DHT22;33342;45.574;9.252;2023-05-10T12:44:39;17.90;99.90
47626;DHT22;33342;45.574;9.252;2023-05-10T12:47:07;17.90;99.90
47626;DHT22;33342;45.574;9.252;2023-05-10T12:49:33;17.90;99.90
47626;DHT22;33342;45.574;9.252;2023-05-10T12:52:01;17.80;99.90
47626;DHT22;33342;45.574;9.252;2023-05-10T12:54:28;17.80;99.90
47626;DHT22;33342;45.574;9.252;2023-05-10T12:56:55;17.80;99.90
47626;DHT22;33342;45.574;9.252;2023-05-10T12:59:22;17.80;99.90
47626;DHT22;33342;45.574;9.252;2023-05-10T13:01:49;17.80;99.90
47626;DHT22;33342;45.574;9.252;2023-05-10T13:04:16;17.90;99.90
47626;DHT22;33342;45.574;9.252;2023-05-10T13:06:43;18.10;99.90
47626;DHT22;33342;45.574;9.252;2023-05-10T13:09:10;18.20;99.90
47626;DHT22;33342;45.574;9.252;2023-05-10T13:11:37;18.50;99.90
47626;DHT22;33342;45.574;9.252;2023-05-10T13:14:04;18.80;99.90
47626;DHT22;33342;45.574;9.252;2023-05-10T13:16:31;19.10;99.90
47626;DHT22;33342;45.574;9.252;2023-05-10T13:18:58;19.30;99.90
47626;DHT22;33342;45.574;9.252;2023-05-10T13:21:26;19.50;99.90
47626;DHT22;33342;45.574;9.252;2023-05-10T13:23:53;19.60;99.90
47626;DHT22;33342;45.574;9.252;2023-05-10T13:26:20;19.80;99.90
47626;DHT22;33342;45.574;9.252;2023-05-10T13:28:48;19.90;99.90
47626;DHT22;33342;45.574;9.252;2023-05-10T13:31:15;20.10;99.90
47626;DHT22;33342;45.574;9.252;2023-05-10T13:33:42;20.20;99.90
47626;DHT22;33342;45.574;9.252;2023-05-10T13:36:09;20.30;99.90
47626;DHT22;33342;45.574;9.252;2023-05-10T13:38:36;20.30;99.90
47626;DHT22;33342;45.574;9.252;2023-05-10T13:41:04;20.50;99.90
47626;DHT22;33342;45.574;9.252;2023-05-10T13:43:31;20.60;99.90
47626;DHT22;33342;45.574;9.252;2023-05-10T13:45:58;20.60;99.90
47626;DHT22;33342;45.574;9.252;2023-05-10T13:48:25;20.70;99.90
47626;DHT22;33342;45.574;9.252;2023-05-10T13:50:52;20.80;99.90
47626;DHT22;33342;45.574;9.252;2023-05-10T13:53:19;20.80;99.90
47626;DHT22;33342;45.574;9.252;2023-05-10T13:55:46;20.80;99.90
47626;DHT22;33342;45.574;9.252;2023-05-10T13:58:13;20.80;99.90
47626;DHT22;33342;45.574;9.252;2023-05-10T14:00:40;20.70;99.90
47626;DHT22;33342;45.574;9.252;2023-05-10T14:03:07;20.60;99.90
47626;DHT22;33342;45.574;9.252;2023-05-10T14:05:38;20.50;99.90
47626;DHT22;33342;45.574;9.252;2023-05-10T14:08:05;20.40;99.90
47626;DHT22;33342;45.574;9.252;2023-05-10T14:10:32;20.40;99.90
47626;DHT22;33342;45.574;9.252;2023-05-10T14:12:59;20.30;99.90
47626;DHT22;33342;45.574;9.252;2023-05-10T14:15:26;20.20;99.90
47626;DHT22;33342;45.574;9.252;2023-05-10T14:17:53;20.10;99.90
47626;DHT22;33342;45.574;9.252;2023-05-10T14:20:20;20.00;99.90
47626;DHT22;33342;45.574;9.252;2023-05-10T14:22:47;19.90;99.90
47626;DHT22;33342;45.574;9.252;2023-05-10T14:25:14;19.90;99.90
47626;DHT22;33342;45.574;9.252;2023-05-10T14:27:42;19.80;99.90
47626;DHT22;33342;45.574;9.252;2023-05-10T14:30:09;19.70;99.90
47626;DHT22;33342;45.574;9.252;2023-05-10T14:32:36;19.60;99.90
47626;DHT22;33342;45.574;9.252;2023-05-10T14:35:04;19.60;99.90
47626;DHT22;33342;45.574;9.252;2023-05-10T14:37:32;19.50;99.90
47626;DHT22;33342;45.574;9.252;2023-05-10T14:39:59;19.50;99.90
47626;DHT22;33342;45.574;9.252;2023-05-10T14:42:27;19.40;99.90
47626;DHT22;33342;45.574;9.252;2023-05-10T14:44:55;19.30;99.90
47626;DHT22;33342;45.574;9.252;2023-05-10T14:47:22;19.30;99.90
47626;DHT22;33342;45.574;9.252;2023-05-10T14:49:48;19.20;99.90
47626;DHT22;33342;45.574;9.252;2023-05-10T14:52:15;19.20;99.90
47626;DHT22;33342;45.574;9.252;2023-05-10T14:54:43;19.20;99.90
47626;DHT22;33342;45.574;9.252;2023-05-10T14:57:10;19.10;99.90
47626;DHT22;33342;45.574;9.252;2023-05-10T14:59:37;19.10;99.90
47626;DHT22;33342;45.574;9.252;2023-05-10T15:02:04;19.10;99.90
47626;DHT22;33342;45.574;9.252;2023-05-10T15:04:31;19.00;99.90
47626;DHT22;33342;45.574;9.252;2023-05-10T15:06:59;19.00;99.90
47626;DHT22;33342;45.574;9.252;2023-05-10T15:09:26;19.00;99.90
47626;DHT22;33342;45.574;9.252;2023-05-10T15:11:56;19.00;99.90
47626;DHT22;33342;45.574;9.252;2023-05-10T15:14:23;19.00;99.90
47626;DHT22;33342;45.574;9.252;2023-05-10T15:16:50;19.00;99.90
47626;DHT22;33342;45.574;9.252;2023-05-10T15:19:17;19.00;99.90
47626;DHT22;33342;45.574;9.252;2023-05-10T15:21:44;19.00;99.90
47626;DHT22;33342;45.574;9.252;2023-05-10T15:24:11;18.90;99.90
47626;DHT22;33342;45.574;9.252;2023-05-10T15:26:38;19.00;99.90
47626;DHT22;33342;45.574;9.252;2023-05-10T15:29:05;18.90;99.90
47626;DHT22;33342;45.574;9.252;2023-05-10T15:31:32;19.00;99.90
47626;DHT22;33342;45.574;9.252;2023-05-10T15:34:01;18.90;99.90
47626;DHT22;33342;45.574;9.252;2023-05-10T15:36:28;18.90;99.90
47626;DHT22;33342;45.574;9.252;2023-05-10T15:38:55;18.90;99.90
47626;DHT22;33342;45.574;9.252;2023-05-10T15:41:22;18.90;99.90
47626;DHT22;33342;45.574;9.252;2023-05-10T15:43:50;18.90;99.90
47626;DHT22;33342;45.574;9.252;2023-05-10T15:46:17;18.80;99.90
47626;DHT22;33342;45.574;9.252;2023-05-10T15:48:44;18.90;99.90
47626;DHT22;33342;45.574;9.252;2023-05-10T15:51:11;18.90;99.90
47626;DHT22;33342;45.574;9.252;2023-05-10T15:53:38;18.90;99.90
47626;DHT22;33342;45.574;9.252;2023-05-10T15:56:18;18.80;99.90
47626;DHT22;33342;45.574;9.252;2023-05-10T15:58:45;18.80;99.90
47626;DHT22;33342;45.574;9.252;2023-05-10T16:01:12;18.80;99.90
47626;DHT22;33342;45.574;9.252;2023-05-10T16:03:40;18.80;99.90
47626;DHT22;33342;45.574;9.252;2023-05-10T16:06:07;18.80;99.90